Aeroporto :
LOGIN :

Iscrizione | Disclaimer

   EN    FR    IT 

 










Sommario :    VFR   VFR Marginale   IFR   IFR Intensivo   IFR Molto Intensivo
Visibilità : 
Base nubi : 
>= 8 km
>= 3000ft
5 / 8 km
1000 / 3000 ft
1500m / 5 km
500 / 1000 ft
800 / 1500m
200 / 500 ft
< 800m
< 200 ft
Simboli :   Temporali  Nebbia  Neve Forte  Precipitazioni Forti  Vento > 20 kt
SIGMETs :   Varie  Temporali  Ghiacco  Turbolenza  Onda orograficha  Ceneri Vulcaniche






- Altitudine del aeroporto : 265 ft


ETSH - Holzdorf AB

ULTIMO METAR :
  • 031000Z 26011KT 9999 SCT038 SCT070 21/11 Q1016 BLU+FCST CNL

METARs OBSOLETI :
  • 030920Z 29009KT 9999 SCT039 SCT060 20/11 Q1016 BLU+BLU+
  • 030820Z 28009KT 9999 SCT032 20/11 Q1016 BLU+BLU+
  • 030720Z 27009KT 9999 SCT022 SCT060 18/13 Q1016 BLU+BLU+ TEMPO BLU

TAF TAF ETSH
Valido dal 03 a 08 ore il 03 a 17 ore UTC


030723Z 0308/0317 27010KT 9999 NSW SCT030 SCT080



MetMap, La meteo Aeronautica in un colpo d'occhio ! - Copyright ORBIFLY Dicembre 2007 - Disclaimer

ORBIFLY MET'MAP TEAM :

Programmazione e sviluppo : Alexandra Zaïnal
Concezione : Baudouin d'Aumeries
Aiuto per la programmazione : Marc-Olivier Méhu
Supporto tecnico e logistico : Manuel Goepfert
Aiuto per la traduzione : Arnaldo La Scala

Contatto : metmap@orbifly.com




FONTI E CREDITI :

   NOAA